Er-rachidia, Errachidia Moulay Ali Cherif Airport (GMFK)

NameErrachidia Moulay Ali Cherif Airport
CityEr-rachidia
CountryMorocco
ICAOGMFK
IATAERH
Altitude1045 m
CoordinatesGoogle Map
Live Air TrafficLiveATC.net
METARGMFK 251700Z 22003KT 9999 BKN026 23/M01 Q1011 NOSIG
2020-04-25 17:00:00 Wind: South-Southwest (220°) 1.54 m/s - Visibility: > 10000 m - Temperature: 23 °C - Dew point: -1 °C - Humidity: 20.3% - Pressure: 1011 hPa

Sorry, no flights used the airport in this database.